createdAt,value
2023-05-11T00:01:50.341Z,18.64
2023-05-11T00:05:51.987Z,18.85
2023-05-11T00:09:54.728Z,18.86
2023-05-11T00:13:55.559Z,18.82
2023-05-11T00:17:55.968Z,18.86
2023-05-11T00:21:56.144Z,18.84
2023-05-11T00:25:59.919Z,18.85
2023-05-11T00:30:00.368Z,18.85
2023-05-11T00:34:00.775Z,18.84
2023-05-11T00:38:01.129Z,18.15
2023-05-11T00:42:03.999Z,18.23
2023-05-11T00:46:05.548Z,18.48
2023-05-11T00:50:06.070Z,18.45
2023-05-11T00:54:13.213Z,18.59
2023-05-11T00:58:17.311Z,18.84
2023-05-11T01:02:17.727Z,19.05
2023-05-11T01:06:30.556Z,18.77
2023-05-11T01:10:45.129Z,18.56
2023-05-11T01:14:57.971Z,18.74
2023-05-11T01:19:08.309Z,18.51
2023-05-11T01:23:52.286Z,18.61
2023-05-11T01:28:18.396Z,18.19
2023-05-11T01:32:27.117Z,18.56
2023-05-11T01:36:35.444Z,18.44
2023-05-11T01:40:39.840Z,18.36
2023-05-11T01:44:45.660Z,18.44
2023-05-11T01:48:53.598Z,18.02
2023-05-11T01:52:55.902Z,18.15
2023-05-11T01:56:57.228Z,18.43
2023-05-11T02:01:00.398Z,18.30
2023-05-11T02:05:06.050Z,17.98
2023-05-11T02:09:07.304Z,18.21
2023-05-11T02:13:11.377Z,18.42
2023-05-11T02:17:13.636Z,18.53
2023-05-11T02:21:20.273Z,18.52
2023-05-11T02:25:21.706Z,18.24
2023-05-11T02:29:22.412Z,17.94
2023-05-11T02:33:28.698Z,18.24
2023-05-11T02:37:35.882Z,17.97
2023-05-11T02:41:42.326Z,18.00
2023-05-11T02:45:47.758Z,18.13
2023-05-11T02:49:54.545Z,18.17
2023-05-11T02:54:01.936Z,18.26
2023-05-11T02:58:06.807Z,18.32
2023-05-11T03:02:08.945Z,18.24
2023-05-11T03:06:09.733Z,17.97
2023-05-11T03:10:14.077Z,17.98
2023-05-11T03:14:17.422Z,17.89
2023-05-11T03:18:21.625Z,17.93
2023-05-11T03:22:23.815Z,18.07
2023-05-11T03:26:30.880Z,18.53
2023-05-11T03:30:36.081Z,18.17
2023-05-11T03:34:36.645Z,18.17
2023-05-11T03:38:39.597Z,18.07
2023-05-11T03:42:47.807Z,18.21
2023-05-11T03:46:50.776Z,18.12
2023-05-11T03:50:53.112Z,18.00
2023-05-11T03:54:53.673Z,18.21
2023-05-11T03:58:57.071Z,18.38
2023-05-11T04:02:59.099Z,18.58
2023-05-11T04:06:59.543Z,18.70
2023-05-11T04:11:00.294Z,18.38
2023-05-11T04:15:04.753Z,18.26
2023-05-11T04:19:06.690Z,18.09
2023-05-11T04:23:10.331Z,18.37
2023-05-11T04:27:10.732Z,18.42
2023-05-11T04:31:14.197Z,18.60
2023-05-11T04:35:14.977Z,18.58
2023-05-11T04:39:16.237Z,18.51
2023-05-11T04:43:16.963Z,18.33
2023-05-11T04:47:20.442Z,18.18
2023-05-11T04:51:21.188Z,18.22
2023-05-11T04:55:22.826Z,18.18
2023-05-11T04:59:24.686Z,18.33
2023-05-11T05:03:27.676Z,18.07
2023-05-11T05:07:28.713Z,17.67
2023-05-11T05:11:29.701Z,17.81
2023-05-11T05:15:30.630Z,18.00
2023-05-11T05:19:34.576Z,17.74
2023-05-11T05:23:35.228Z,17.71
2023-05-11T05:27:35.719Z,17.89
2023-05-11T05:31:40.666Z,18.08
2023-05-11T05:35:44.079Z,18.31
2023-05-11T05:39:47.688Z,18.43
2023-05-11T05:43:49.189Z,18.30
2023-05-11T05:47:51.931Z,18.41
2023-05-11T05:51:56.033Z,18.38
2023-05-11T05:55:56.658Z,18.50
2023-05-11T05:59:59.008Z,18.91
2023-05-11T06:03:59.475Z,18.76
2023-05-11T06:12:11.162Z,19.16
2023-05-11T06:16:16.687Z,18.96
2023-05-11T06:20:17.379Z,18.83
2023-05-11T06:24:20.817Z,17.99
2023-05-11T06:28:24.514Z,17.95
2023-05-11T06:32:27.673Z,18.36
2023-05-11T06:36:28.946Z,18.83
2023-05-11T06:40:31.872Z,19.09
2023-05-11T06:44:32.225Z,19.18
2023-05-11T06:48:32.937Z,19.06
2023-05-11T06:52:33.652Z,19.31
2023-05-11T06:56:39.638Z,19.34
2023-05-11T07:00:40.058Z,19.24
2023-05-11T07:04:40.373Z,19.04
2023-05-11T07:08:40.666Z,18.73
2023-05-11T07:12:43.838Z,18.96
2023-05-11T07:16:44.270Z,19.10
2023-05-11T07:20:47.099Z,19.13
2023-05-11T07:24:47.698Z,19.08
2023-05-11T07:28:50.752Z,19.05
2023-05-11T07:32:51.211Z,19.06
2023-05-11T07:36:51.451Z,19.13
2023-05-11T07:40:51.677Z,18.79
2023-05-11T07:44:54.824Z,19.08
2023-05-11T07:49:03.470Z,19.59
2023-05-11T07:53:14.583Z,19.45
2023-05-11T07:57:14.746Z,19.44
2023-05-11T08:01:17.759Z,19.34
2023-05-11T08:05:18.308Z,19.51
2023-05-11T08:09:18.822Z,19.41
2023-05-11T08:13:19.099Z,19.61
2023-05-11T08:17:21.931Z,19.26
2023-05-11T08:21:22.266Z,19.21
2023-05-11T08:25:22.685Z,19.49
2023-05-11T08:29:22.920Z,19.49
2023-05-11T08:37:30.878Z,19.82
2023-05-11T08:41:31.191Z,19.67
2023-05-11T08:45:34.820Z,19.94
2023-05-11T08:49:38.913Z,19.67
2023-05-11T08:53:39.221Z,19.69
2023-05-11T08:57:41.356Z,19.38
2023-05-11T09:01:44.748Z,19.93
2023-05-11T09:05:50.565Z,19.71
2023-05-11T09:09:51.525Z,19.36
2023-05-11T09:13:52.333Z,19.41
2023-05-11T09:17:52.693Z,19.46
2023-05-11T09:21:56.131Z,19.30
2023-05-11T09:25:56.823Z,19.22
2023-05-11T09:29:57.599Z,19.19
2023-05-11T09:34:14.182Z,19.23
2023-05-11T09:38:19.347Z,19.27
2023-05-11T09:42:21.936Z,19.84
2023-05-11T09:46:24.833Z,20.71
2023-05-11T09:50:26.477Z,21.28
2023-05-11T09:54:29.593Z,21.19
2023-05-11T09:58:29.790Z,20.35
2023-05-11T10:02:34.605Z,19.99
2023-05-11T10:06:51.323Z,20.28
2023-05-11T10:10:54.330Z,19.98
2023-05-11T10:14:58.027Z,19.83
2023-05-11T10:19:00.108Z,20.29
2023-05-11T10:23:00.360Z,20.14
2023-05-11T10:27:04.659Z,20.08
2023-05-11T10:31:07.853Z,20.15
2023-05-11T10:35:10.590Z,20.06
2023-05-11T10:39:10.889Z,19.95
2023-05-11T10:43:52.582Z,20.27
2023-05-11T10:48:27.912Z,20.71
2023-05-11T10:53:00.028Z,21.13
2023-05-11T10:57:36.550Z,20.34
2023-05-11T11:01:49.447Z,20.02
2023-05-11T11:05:49.883Z,20.25
2023-05-11T11:10:00.568Z,20.65
2023-05-11T11:14:04.735Z,20.54
2023-05-11T11:18:26.538Z,20.74
2023-05-11T11:22:52.454Z,20.82
2023-05-11T11:26:53.232Z,20.50
2023-05-11T11:31:29.676Z,20.67
2023-05-11T11:35:50.706Z,20.97
2023-05-11T11:40:13.249Z,20.60
2023-05-11T11:44:25.386Z,20.78
2023-05-11T11:48:33.756Z,20.19
2023-05-11T11:52:39.470Z,20.13
2023-05-11T11:56:47.112Z,19.99
2023-05-11T12:00:51.480Z,20.38
2023-05-11T12:05:00.100Z,21.07
2023-05-11T12:09:04.046Z,21.12
2023-05-11T12:13:05.150Z,20.70
2023-05-11T12:17:15.594Z,20.70
2023-05-11T12:21:23.709Z,20.99
2023-05-11T12:25:26.506Z,20.68
2023-05-11T12:29:27.064Z,20.12
2023-05-11T12:33:27.514Z,20.66
2023-05-11T12:37:28.196Z,20.87
2023-05-11T12:41:30.994Z,20.83
2023-05-11T12:45:32.404Z,20.23
2023-05-11T12:49:34.209Z,20.33
2023-05-11T12:53:39.141Z,19.97
2023-05-11T12:57:43.847Z,20.15
2023-05-11T13:01:44.490Z,20.68
2023-05-11T13:05:44.751Z,20.99
2023-05-11T13:09:45.539Z,21.09
2023-05-11T13:13:48.432Z,20.83
2023-05-11T13:17:59.153Z,20.23
2023-05-11T13:22:01.680Z,19.75
2023-05-11T13:26:02.198Z,19.66
2023-05-11T13:30:08.633Z,19.94
2023-05-11T13:34:09.501Z,19.75
2023-05-11T13:38:11.842Z,19.45
2023-05-11T13:42:12.142Z,19.53
2023-05-11T13:46:15.653Z,19.60
2023-05-11T13:50:16.471Z,19.74
2023-05-11T13:54:16.848Z,19.80
2023-05-11T13:58:18.031Z,19.92
2023-05-11T14:02:20.888Z,19.32
2023-05-11T14:06:21.212Z,19.21
2023-05-11T14:10:22.681Z,19.57
2023-05-11T14:14:23.078Z,19.41
2023-05-11T14:18:31.197Z,18.93
2023-05-11T14:22:31.617Z,19.46
2023-05-11T14:26:31.812Z,19.20
2023-05-11T14:30:32.051Z,19.07
2023-05-11T14:34:35.030Z,19.46
2023-05-11T14:38:35.267Z,19.31
2023-05-11T14:42:35.574Z,19.47
2023-05-11T14:46:36.335Z,19.41
2023-05-11T14:50:39.135Z,19.72
2023-05-11T14:54:39.430Z,19.18
2023-05-11T14:58:41.871Z,18.93
2023-05-11T15:02:42.798Z,18.82
2023-05-11T15:06:46.844Z,18.89
2023-05-11T15:10:47.137Z,18.83
2023-05-11T15:14:47.255Z,18.90
2023-05-11T15:18:49.982Z,18.92
2023-05-11T15:22:53.048Z,18.88
2023-05-11T15:26:53.298Z,19.15
2023-05-11T15:30:53.556Z,19.18
2023-05-11T15:34:59.689Z,18.42
2023-05-11T15:39:03.081Z,18.54
2023-05-11T15:43:03.450Z,18.84
2023-05-11T15:47:04.347Z,18.62
2023-05-11T15:51:05.084Z,18.85
2023-05-11T15:55:08.974Z,18.68
2023-05-11T15:59:09.412Z,18.88
2023-05-11T16:03:09.945Z,18.66
2023-05-11T16:07:10.385Z,19.12
2023-05-11T16:11:13.272Z,18.92
2023-05-11T16:15:14.323Z,18.76
2023-05-11T16:19:14.935Z,18.97
2023-05-11T16:23:15.652Z,18.65
2023-05-11T16:27:18.609Z,18.37
2023-05-11T16:31:18.910Z,18.34
2023-05-11T16:35:19.300Z,18.33
2023-05-11T16:39:19.578Z,18.31
2023-05-11T16:43:22.345Z,18.49
2023-05-11T16:47:22.774Z,18.13
2023-05-11T16:51:23.062Z,18.06
2023-05-11T16:55:23.571Z,18.18
2023-05-11T16:59:26.841Z,18.20
2023-05-11T17:03:27.174Z,18.30
2023-05-11T17:07:29.084Z,18.07
2023-05-11T17:11:29.290Z,18.24
2023-05-11T17:15:32.478Z,18.16
2023-05-11T17:19:32.799Z,17.98
2023-05-11T17:23:34.131Z,18.30
2023-05-11T17:27:35.187Z,18.15
2023-05-11T17:31:38.238Z,18.18
2023-05-11T17:35:38.804Z,18.13
2023-05-11T17:39:39.127Z,18.35
2023-05-11T17:43:39.371Z,18.54
2023-05-11T17:47:42.723Z,18.32
2023-05-11T17:51:42.947Z,18.31
2023-05-11T17:55:44.428Z,17.96
2023-05-11T17:59:44.681Z,18.16
2023-05-11T18:03:48.808Z,18.28
2023-05-11T18:07:49.528Z,18.10
2023-05-11T18:11:50.898Z,18.11
2023-05-11T18:15:51.698Z,18.19
2023-05-11T18:19:54.693Z,18.37
2023-05-11T18:23:55.007Z,18.02
2023-05-11T18:27:55.407Z,18.03
2023-05-11T18:31:56.052Z,18.10
2023-05-11T18:35:58.954Z,18.08
2023-05-11T18:39:59.170Z,17.99
2023-05-11T18:44:00.458Z,18.03
2023-05-11T18:48:00.916Z,17.92
2023-05-11T18:52:04.178Z,17.95
2023-05-11T18:56:04.421Z,17.91
2023-05-11T19:00:05.662Z,17.82
2023-05-11T19:04:07.232Z,17.96
2023-05-11T19:08:10.657Z,17.91
2023-05-11T19:12:11.891Z,17.89
2023-05-11T19:16:12.467Z,17.88
2023-05-11T19:20:13.723Z,17.75
2023-05-11T19:24:16.660Z,17.83
2023-05-11T19:28:16.912Z,17.70
2023-05-11T19:32:19.198Z,17.78
2023-05-11T19:36:19.768Z,17.77
2023-05-11T19:44:32.972Z,17.69
2023-05-11T19:48:33.544Z,17.76
2023-05-11T19:52:34.045Z,17.77
2023-05-11T19:56:37.355Z,17.80
2023-05-11T20:00:37.777Z,17.74
2023-05-11T20:04:38.143Z,17.71
2023-05-11T20:08:38.338Z,17.66
2023-05-11T20:12:42.243Z,17.59
2023-05-11T20:16:42.644Z,17.81
2023-05-11T20:20:43.043Z,17.67
2023-05-11T20:24:45.647Z,17.80
2023-05-11T20:28:48.877Z,17.93
2023-05-11T20:36:53.956Z,17.70
2023-05-11T20:41:00.126Z,17.73
2023-05-11T20:45:07.533Z,17.69
2023-05-11T20:49:08.342Z,17.72
2023-05-11T20:53:08.831Z,17.74
2023-05-11T20:57:10.099Z,17.90
2023-05-11T21:01:13.606Z,17.96
2023-05-11T21:05:14.013Z,18.05
2023-05-11T21:09:14.819Z,18.04
2023-05-11T21:13:17.874Z,18.04
2023-05-11T21:17:22.454Z,17.82
2023-05-11T21:21:30.087Z,17.56
2023-05-11T21:25:31.677Z,17.81
2023-05-11T21:29:37.833Z,18.00
2023-05-11T21:33:42.001Z,17.93
2023-05-11T21:37:45.764Z,17.75
2023-05-11T21:41:48.286Z,17.85
2023-05-11T21:45:50.813Z,17.83
2023-05-11T21:49:54.735Z,17.64
2023-05-11T21:53:56.815Z,17.66
2023-05-11T21:57:58.829Z,17.64
2023-05-11T22:02:00.455Z,17.64
2023-05-11T22:06:05.340Z,17.49
2023-05-11T22:10:05.882Z,17.32
2023-05-11T22:14:06.606Z,17.33
2023-05-11T22:18:07.094Z,17.35
2023-05-11T22:22:10.268Z,17.29
2023-05-11T22:26:10.625Z,17.19
2023-05-11T22:30:12.993Z,17.29
2023-05-11T22:34:13.287Z,17.70
2023-05-11T22:38:16.445Z,17.57
2023-05-11T22:42:16.642Z,17.48
2023-05-11T22:46:17.488Z,17.81
2023-05-11T22:50:18.232Z,17.43
2023-05-11T22:54:21.429Z,17.40
2023-05-11T22:58:22.819Z,17.01
2023-05-11T23:02:23.205Z,17.36
2023-05-11T23:06:23.759Z,17.12
2023-05-11T23:10:27.508Z,17.29
2023-05-11T23:14:27.792Z,17.30
2023-05-11T23:18:28.347Z,17.15
2023-05-11T23:22:29.065Z,17.15
2023-05-11T23:26:31.887Z,17.26
2023-05-11T23:30:32.290Z,17.43
2023-05-11T23:34:33.411Z,17.29
2023-05-11T23:38:38.395Z,17.28
2023-05-11T23:42:41.525Z,17.43
2023-05-11T23:46:41.885Z,17.29
2023-05-11T23:50:42.086Z,17.03
2023-05-11T23:54:42.788Z,17.14
2023-05-11T23:58:46.279Z,17.30
